KELY/ELY METAR and TAF weather

Enter ICAO airport designator
Station Type Date Time Source
KELY METAR 2019/04/24 21:53 UTC NOAA

KELY 242153Z AUTO 00000KT 10SM CLR 19/M01 A3014 RMK AO2 SLP147 T01941006


Station Type Date Time Source
KELY Decoded METAR 2019/04/24 21:53 UTC NOAA

ELY AIRPORT (YELLAND FIELD), NV, United States (KELY) 39-18N 114-51W 1906M
Apr 24, 2019 - 05:53 PM EDT / 2019.04.24 2153 UTC
Wind: Calm:0
Visibility: 10 mile(s):0
Sky conditions: clear
Temperature: 66.9 F (19.4 C)
Dew Point: 30.9 F (-0.6 C)
Relative Humidity: 25%
Pressure (altimeter): 30.14 in. Hg (1020 hPa)
ob: KELY 242153Z AUTO 00000KT 10SM CLR 19/M01 A3014 RMK AO2 SLP147 T01941006
cycle: 22

Station Type Date Time Source
KELY TAF 2019/04/24 18:40 UTC NOAA

TAF KELY 241737Z 2418/2518 VRB06KT P6SM SCT060 SCT250
FM242000 32010KT P6SM SCT070 SCT200
FM250000 35007KT P6SM VCTS BKN080CB
FM250500 VRB06KT P6SM VCSH SCT080 BKN200
FM251100 18006KT P6SM BKN200

Example: see airport list